sensor_id;sensor_type;location;lat;lon;timestamp;P1;durP1;ratioP1;P2;durP2;ratioP2
33716;SDS011;20046;50.746;7.072;2022-07-18T00:00:58;5.32;;;2.72;;
33716;SDS011;20046;50.746;7.072;2022-07-18T00:03:24;9.25;;;3.40;;
33716;SDS011;20046;50.746;7.072;2022-07-18T00:05:49;8.80;;;2.97;;
33716;SDS011;20046;50.746;7.072;2022-07-18T00:08:15;14.63;;;3.28;;
33716;SDS011;20046;50.746;7.072;2022-07-18T00:10:41;6.82;;;3.05;;
33716;SDS011;20046;50.746;7.072;2022-07-18T00:13:07;5.72;;;2.63;;
33716;SDS011;20046;50.746;7.072;2022-07-18T00:15:32;9.20;;;2.80;;
33716;SDS011;20046;50.746;7.072;2022-07-18T00:17:58;6.18;;;2.72;;
33716;SDS011;20046;50.746;7.072;2022-07-18T00:20:24;5.28;;;2.53;;
33716;SDS011;20046;50.746;7.072;2022-07-18T00:22:49;10.70;;;2.83;;
33716;SDS011;20046;50.746;7.072;2022-07-18T00:25:15;9.68;;;3.20;;
33716;SDS011;20046;50.746;7.072;2022-07-18T00:27:41;7.82;;;2.92;;
33716;SDS011;20046;50.746;7.072;2022-07-18T00:30:06;3.90;;;2.33;;
33716;SDS011;20046;50.746;7.072;2022-07-18T00:32:33;6.00;;;2.92;;
33716;SDS011;20046;50.746;7.072;2022-07-18T00:34:59;7.13;;;3.10;;
33716;SDS011;20046;50.746;7.072;2022-07-18T00:37:24;8.90;;;3.13;;
33716;SDS011;20046;50.746;7.072;2022-07-18T00:39:50;4.93;;;2.50;;
33716;SDS011;20046;50.746;7.072;2022-07-18T00:42:16;6.85;;;2.55;;
33716;SDS011;20046;50.746;7.072;2022-07-18T00:44:42;9.68;;;2.78;;
33716;SDS011;20046;50.746;7.072;2022-07-18T00:47:07;8.63;;;2.50;;
33716;SDS011;20046;50.746;7.072;2022-07-18T00:49:33;3.38;;;2.40;;
33716;SDS011;20046;50.746;7.072;2022-07-18T00:51:59;5.20;;;2.85;;
33716;SDS011;20046;50.746;7.072;2022-07-18T00:54:25;5.35;;;2.45;;
33716;SDS011;20046;50.746;7.072;2022-07-18T00:56:50;9.15;;;2.95;;
33716;SDS011;20046;50.746;7.072;2022-07-18T00:59:16;6.72;;;2.75;;
33716;SDS011;20046;50.746;7.072;2022-07-18T01:01:43;6.40;;;2.60;;
33716;SDS011;20046;50.746;7.072;2022-07-18T01:04:11;10.05;;;2.75;;
33716;SDS011;20046;50.746;7.072;2022-07-18T01:06:48;6.57;;;2.65;;
33716;SDS011;20046;50.746;7.072;2022-07-18T01:09:16;6.65;;;2.65;;
33716;SDS011;20046;50.746;7.072;2022-07-18T01:11:43;6.47;;;3.22;;
33716;SDS011;20046;50.746;7.072;2022-07-18T01:14:09;6.63;;;2.35;;
33716;SDS011;20046;50.746;7.072;2022-07-18T01:16:35;7.13;;;2.78;;
33716;SDS011;20046;50.746;7.072;2022-07-18T01:19:01;11.07;;;2.60;;
33716;SDS011;20046;50.746;7.072;2022-07-18T01:21:27;5.10;;;2.60;;
33716;SDS011;20046;50.746;7.072;2022-07-18T01:23:53;8.70;;;2.72;;
33716;SDS011;20046;50.746;7.072;2022-07-18T01:26:18;7.50;;;2.88;;
33716;SDS011;20046;50.746;7.072;2022-07-18T01:28:45;10.90;;;2.88;;
33716;SDS011;20046;50.746;7.072;2022-07-18T01:31:11;6.05;;;2.40;;
33716;SDS011;20046;50.746;7.072;2022-07-18T01:33:37;7.38;;;2.65;;
33716;SDS011;20046;50.746;7.072;2022-07-18T01:36:03;7.43;;;2.75;;
33716;SDS011;20046;50.746;7.072;2022-07-18T01:38:30;6.68;;;2.38;;
33716;SDS011;20046;50.746;7.072;2022-07-18T01:40:57;6.10;;;2.78;;
33716;SDS011;20046;50.746;7.072;2022-07-18T01:43:26;4.60;;;2.50;;
33716;SDS011;20046;50.746;7.072;2022-07-18T01:45:53;6.65;;;2.72;;
33716;SDS011;20046;50.746;7.072;2022-07-18T01:48:19;8.48;;;2.85;;
33716;SDS011;20046;50.746;7.072;2022-07-18T01:50:47;6.05;;;3.20;;
33716;SDS011;20046;50.746;7.072;2022-07-18T01:53:13;5.60;;;2.78;;
33716;SDS011;20046;50.746;7.072;2022-07-18T01:55:39;6.30;;;2.55;;
33716;SDS011;20046;50.746;7.072;2022-07-18T01:58:05;6.25;;;2.75;;
33716;SDS011;20046;50.746;7.072;2022-07-18T02:00:31;5.03;;;2.85;;
33716;SDS011;20046;50.746;7.072;2022-07-18T02:02:56;5.43;;;2.20;;
33716;SDS011;20046;50.746;7.072;2022-07-18T02:05:22;5.18;;;2.63;;
33716;SDS011;20046;50.746;7.072;2022-07-18T02:07:48;3.70;;;2.97;;
33716;SDS011;20046;50.746;7.072;2022-07-18T02:10:17;6.20;;;2.42;;
33716;SDS011;20046;50.746;7.072;2022-07-18T02:12:45;7.50;;;2.60;;
33716;SDS011;20046;50.746;7.072;2022-07-18T02:15:11;12.88;;;2.55;;
33716;SDS011;20046;50.746;7.072;2022-07-18T02:17:38;8.05;;;2.67;;
33716;SDS011;20046;50.746;7.072;2022-07-18T02:20:05;3.53;;;2.22;;
33716;SDS011;20046;50.746;7.072;2022-07-18T02:22:32;5.22;;;2.60;;
33716;SDS011;20046;50.746;7.072;2022-07-18T02:24:58;7.40;;;2.60;;
33716;SDS011;20046;50.746;7.072;2022-07-18T02:27:24;5.38;;;2.33;;
33716;SDS011;20046;50.746;7.072;2022-07-18T02:29:50;11.95;;;2.45;;
33716;SDS011;20046;50.746;7.072;2022-07-18T02:32:15;7.82;;;2.53;;
33716;SDS011;20046;50.746;7.072;2022-07-18T02:34:41;3.53;;;2.20;;
33716;SDS011;20046;50.746;7.072;2022-07-18T02:37:07;5.63;;;2.67;;
33716;SDS011;20046;50.746;7.072;2022-07-18T02:39:33;4.63;;;2.20;;
33716;SDS011;20046;50.746;7.072;2022-07-18T02:41:59;10.48;;;2.42;;
33716;SDS011;20046;50.746;7.072;2022-07-18T02:44:25;6.13;;;2.25;;
33716;SDS011;20046;50.746;7.072;2022-07-18T02:46:51;6.97;;;2.85;;
33716;SDS011;20046;50.746;7.072;2022-07-18T02:49:17;6.32;;;2.80;;
33716;SDS011;20046;50.746;7.072;2022-07-18T02:51:58;6.32;;;2.65;;
33716;SDS011;20046;50.746;7.072;2022-07-18T02:54:31;5.97;;;3.10;;
33716;SDS011;20046;50.746;7.072;2022-07-18T02:56:58;7.28;;;2.70;;
33716;SDS011;20046;50.746;7.072;2022-07-18T02:59:24;5.47;;;2.72;;
33716;SDS011;20046;50.746;7.072;2022-07-18T03:01:51;6.03;;;2.30;;
33716;SDS011;20046;50.746;7.072;2022-07-18T03:04:17;7.60;;;2.70;;
33716;SDS011;20046;50.746;7.072;2022-07-18T03:06:44;5.75;;;2.60;;
33716;SDS011;20046;50.746;7.072;2022-07-18T03:09:10;7.13;;;2.60;;
33716;SDS011;20046;50.746;7.072;2022-07-18T03:11:35;8.70;;;2.50;;
33716;SDS011;20046;50.746;7.072;2022-07-18T03:14:01;5.15;;;2.70;;
33716;SDS011;20046;50.746;7.072;2022-07-18T03:16:26;8.50;;;2.80;;
33716;SDS011;20046;50.746;7.072;2022-07-18T03:18:52;5.45;;;3.00;;
33716;SDS011;20046;50.746;7.072;2022-07-18T03:21:18;8.07;;;3.00;;
33716;SDS011;20046;50.746;7.072;2022-07-18T03:23:43;7.45;;;2.85;;
33716;SDS011;20046;50.746;7.072;2022-07-18T03:26:09;4.75;;;2.80;;
33716;SDS011;20046;50.746;7.072;2022-07-18T03:28:34;6.47;;;2.67;;
33716;SDS011;20046;50.746;7.072;2022-07-18T03:31:00;7.35;;;3.00;;
33716;SDS011;20046;50.746;7.072;2022-07-18T03:33:26;7.93;;;2.72;;
33716;SDS011;20046;50.746;7.072;2022-07-18T03:35:52;5.10;;;2.47;;
33716;SDS011;20046;50.746;7.072;2022-07-18T03:38:18;7.43;;;3.00;;
33716;SDS011;20046;50.746;7.072;2022-07-18T03:40:43;8.15;;;2.83;;
33716;SDS011;20046;50.746;7.072;2022-07-18T03:43:09;7.22;;;2.92;;
33716;SDS011;20046;50.746;7.072;2022-07-18T03:45:35;7.72;;;2.95;;
33716;SDS011;20046;50.746;7.072;2022-07-18T03:48:00;8.10;;;2.67;;
33716;SDS011;20046;50.746;7.072;2022-07-18T03:50:26;8.57;;;2.95;;
33716;SDS011;20046;50.746;7.072;2022-07-18T03:52:52;5.47;;;2.35;;
33716;SDS011;20046;50.746;7.072;2022-07-18T03:55:18;7.15;;;3.10;;
33716;SDS011;20046;50.746;7.072;2022-07-18T03:57:44;7.22;;;2.92;;
33716;SDS011;20046;50.746;7.072;2022-07-18T04:00:11;6.90;;;3.22;;
33716;SDS011;20046;50.746;7.072;2022-07-18T04:02:38;6.63;;;2.50;;
33716;SDS011;20046;50.746;7.072;2022-07-18T04:05:04;7.95;;;2.83;;
33716;SDS011;20046;50.746;7.072;2022-07-18T04:07:30;7.65;;;2.95;;
33716;SDS011;20046;50.746;7.072;2022-07-18T04:09:56;10.88;;;2.85;;
33716;SDS011;20046;50.746;7.072;2022-07-18T04:12:22;7.97;;;2.70;;
33716;SDS011;20046;50.746;7.072;2022-07-18T04:14:47;10.02;;;2.80;;
33716;SDS011;20046;50.746;7.072;2022-07-18T04:17:13;7.10;;;2.70;;
33716;SDS011;20046;50.746;7.072;2022-07-18T04:19:38;4.78;;;2.85;;
33716;SDS011;20046;50.746;7.072;2022-07-18T04:22:04;4.90;;;2.70;;
33716;SDS011;20046;50.746;7.072;2022-07-18T04:24:30;5.18;;;2.53;;
33716;SDS011;20046;50.746;7.072;2022-07-18T04:26:55;5.65;;;2.47;;
33716;SDS011;20046;50.746;7.072;2022-07-18T04:29:21;7.57;;;2.45;;
33716;SDS011;20046;50.746;7.072;2022-07-18T04:31:46;11.15;;;4.03;;
33716;SDS011;20046;50.746;7.072;2022-07-18T04:34:12;6.30;;;2.90;;
33716;SDS011;20046;50.746;7.072;2022-07-18T04:36:37;6.30;;;2.60;;
33716;SDS011;20046;50.746;7.072;2022-07-18T04:39:03;4.32;;;2.40;;
33716;SDS011;20046;50.746;7.072;2022-07-18T04:41:29;5.45;;;2.33;;
33716;SDS011;20046;50.746;7.072;2022-07-18T04:43:54;7.63;;;2.20;;
33716;SDS011;20046;50.746;7.072;2022-07-18T04:46:20;9.10;;;2.72;;
33716;SDS011;20046;50.746;7.072;2022-07-18T04:48:45;6.43;;;2.65;;
33716;SDS011;20046;50.746;7.072;2022-07-18T04:51:11;6.78;;;2.90;;
33716;SDS011;20046;50.746;7.072;2022-07-18T04:53:37;7.65;;;3.40;;
33716;SDS011;20046;50.746;7.072;2022-07-18T04:56:03;8.48;;;3.50;;
33716;SDS011;20046;50.746;7.072;2022-07-18T04:58:28;11.23;;;3.20;;
33716;SDS011;20046;50.746;7.072;2022-07-18T05:00:54;9.77;;;3.40;;
33716;SDS011;20046;50.746;7.072;2022-07-18T05:03:21;5.75;;;3.03;;
33716;SDS011;20046;50.746;7.072;2022-07-18T05:05:47;9.88;;;3.05;;
33716;SDS011;20046;50.746;7.072;2022-07-18T05:08:12;5.55;;;2.70;;
33716;SDS011;20046;50.746;7.072;2022-07-18T05:10:39;12.13;;;3.35;;
33716;SDS011;20046;50.746;7.072;2022-07-18T05:13:05;11.07;;;2.53;;
33716;SDS011;20046;50.746;7.072;2022-07-18T05:15:30;8.93;;;3.22;;
33716;SDS011;20046;50.746;7.072;2022-07-18T05:17:56;12.20;;;2.92;;
33716;SDS011;20046;50.746;7.072;2022-07-18T05:20:23;8.32;;;3.03;;
33716;SDS011;20046;50.746;7.072;2022-07-18T05:22:50;7.30;;;3.00;;
33716;SDS011;20046;50.746;7.072;2022-07-18T05:25:16;13.40;;;3.40;;
33716;SDS011;20046;50.746;7.072;2022-07-18T05:27:43;13.30;;;3.80;;
33716;SDS011;20046;50.746;7.072;2022-07-18T05:30:10;10.63;;;3.58;;
33716;SDS011;20046;50.746;7.072;2022-07-18T05:32:39;12.30;;;3.60;;
33716;SDS011;20046;50.746;7.072;2022-07-18T05:35:06;7.55;;;3.10;;
33716;SDS011;20046;50.746;7.072;2022-07-18T05:37:33;9.73;;;3.30;;
33716;SDS011;20046;50.746;7.072;2022-07-18T05:40:00;10.60;;;3.50;;
33716;SDS011;20046;50.746;7.072;2022-07-18T05:42:27;5.07;;;2.50;;
33716;SDS011;20046;50.746;7.072;2022-07-18T05:44:53;15.02;;;3.65;;
33716;SDS011;20046;50.746;7.072;2022-07-18T05:47:18;4.93;;;2.70;;
33716;SDS011;20046;50.746;7.072;2022-07-18T05:49:44;9.50;;;3.17;;
33716;SDS011;20046;50.746;7.072;2022-07-18T05:52:09;6.85;;;2.60;;
33716;SDS011;20046;50.746;7.072;2022-07-18T05:54:35;5.28;;;2.83;;
33716;SDS011;20046;50.746;7.072;2022-07-18T05:57:01;10.75;;;2.97;;
33716;SDS011;20046;50.746;7.072;2022-07-18T05:59:26;14.93;;;3.83;;
33716;SDS011;20046;50.746;7.072;2022-07-18T06:01:52;7.32;;;3.00;;
33716;SDS011;20046;50.746;7.072;2022-07-18T06:04:18;7.60;;;2.72;;
33716;SDS011;20046;50.746;7.072;2022-07-18T06:06:43;6.22;;;2.67;;
33716;SDS011;20046;50.746;7.072;2022-07-18T06:09:09;7.93;;;2.45;;
33716;SDS011;20046;50.746;7.072;2022-07-18T06:11:36;5.30;;;2.55;;
33716;SDS011;20046;50.746;7.072;2022-07-18T06:14:01;11.77;;;2.80;;
33716;SDS011;20046;50.746;7.072;2022-07-18T06:16:28;7.30;;;2.45;;
33716;SDS011;20046;50.746;7.072;2022-07-18T06:18:54;7.15;;;2.38;;
33716;SDS011;20046;50.746;7.072;2022-07-18T06:21:21;6.18;;;2.53;;
33716;SDS011;20046;50.746;7.072;2022-07-18T06:23:46;7.43;;;2.45;;
33716;SDS011;20046;50.746;7.072;2022-07-18T06:26:12;15.52;;;2.90;;
33716;SDS011;20046;50.746;7.072;2022-07-18T06:28:38;6.03;;;2.45;;
33716;SDS011;20046;50.746;7.072;2022-07-18T06:31:03;4.43;;;2.20;;
33716;SDS011;20046;50.746;7.072;2022-07-18T06:33:29;7.90;;;2.53;;
33716;SDS011;20046;50.746;7.072;2022-07-18T06:35:56;8.27;;;2.63;;
33716;SDS011;20046;50.746;7.072;2022-07-18T06:38:21;6.43;;;2.42;;
33716;SDS011;20046;50.746;7.072;2022-07-18T06:40:47;8.93;;;2.42;;
33716;SDS011;20046;50.746;7.072;2022-07-18T06:43:13;10.63;;;2.17;;
33716;SDS011;20046;50.746;7.072;2022-07-18T06:45:44;7.38;;;1.92;;
33716;SDS011;20046;50.746;7.072;2022-07-18T06:48:10;6.63;;;2.47;;
33716;SDS011;20046;50.746;7.072;2022-07-18T06:50:36;6.07;;;2.08;;
33716;SDS011;20046;50.746;7.072;2022-07-18T06:53:01;6.80;;;2.28;;
33716;SDS011;20046;50.746;7.072;2022-07-18T06:55:27;9.20;;;2.45;;
33716;SDS011;20046;50.746;7.072;2022-07-18T06:57:53;11.32;;;2.60;;
33716;SDS011;20046;50.746;7.072;2022-07-18T07:00:18;8.95;;;2.35;;
33716;SDS011;20046;50.746;7.072;2022-07-18T07:02:45;8.65;;;1.95;;
33716;SDS011;20046;50.746;7.072;2022-07-18T07:05:13;4.05;;;1.60;;
33716;SDS011;20046;50.746;7.072;2022-07-18T07:07:39;6.80;;;1.80;;
33716;SDS011;20046;50.746;7.072;2022-07-18T07:10:05;8.00;;;2.15;;
33716;SDS011;20046;50.746;7.072;2022-07-18T07:12:41;5.35;;;1.80;;
33716;SDS011;20046;50.746;7.072;2022-07-18T07:15:12;8.18;;;1.95;;
33716;SDS011;20046;50.746;7.072;2022-07-18T07:17:38;3.10;;;1.52;;
33716;SDS011;20046;50.746;7.072;2022-07-18T07:20:04;6.95;;;2.00;;
33716;SDS011;20046;50.746;7.072;2022-07-18T07:22:32;8.45;;;1.77;;
33716;SDS011;20046;50.746;7.072;2022-07-18T07:25:18;10.23;;;2.00;;
33716;SDS011;20046;50.746;7.072;2022-07-18T07:27:45;4.68;;;1.55;;
33716;SDS011;20046;50.746;7.072;2022-07-18T07:30:11;4.90;;;1.80;;
33716;SDS011;20046;50.746;7.072;2022-07-18T07:32:38;3.25;;;1.55;;
33716;SDS011;20046;50.746;7.072;2022-07-18T07:35:07;6.40;;;1.70;;
33716;SDS011;20046;50.746;7.072;2022-07-18T07:37:40;7.80;;;1.75;;
33716;SDS011;20046;50.746;7.072;2022-07-18T07:40:08;5.90;;;1.40;;
33716;SDS011;20046;50.746;7.072;2022-07-18T07:42:34;5.55;;;1.48;;
33716;SDS011;20046;50.746;7.072;2022-07-18T07:45:01;5.30;;;1.77;;
33716;SDS011;20046;50.746;7.072;2022-07-18T07:47:27;8.40;;;1.80;;
33716;SDS011;20046;50.746;7.072;2022-07-18T07:49:54;5.40;;;1.48;;
33716;SDS011;20046;50.746;7.072;2022-07-18T07:52:22;5.47;;;1.70;;
33716;SDS011;20046;50.746;7.072;2022-07-18T07:54:49;3.90;;;2.10;;
33716;SDS011;20046;50.746;7.072;2022-07-18T07:57:16;6.82;;;1.77;;
33716;SDS011;20046;50.746;7.072;2022-07-18T07:59:41;5.07;;;1.60;;
33716;SDS011;20046;50.746;7.072;2022-07-18T08:02:07;3.83;;;1.83;;
33716;SDS011;20046;50.746;7.072;2022-07-18T08:04:33;3.30;;;1.23;;
33716;SDS011;20046;50.746;7.072;2022-07-18T08:06:59;11.00;;;2.10;;
33716;SDS011;20046;50.746;7.072;2022-07-18T08:09:24;9.98;;;2.30;;
33716;SDS011;20046;50.746;7.072;2022-07-18T08:11:50;5.57;;;1.73;;
33716;SDS011;20046;50.746;7.072;2022-07-18T08:14:15;9.32;;;1.80;;
33716;SDS011;20046;50.746;7.072;2022-07-18T08:16:41;5.75;;;1.50;;
33716;SDS011;20046;50.746;7.072;2022-07-18T08:19:07;7.72;;;1.48;;
33716;SDS011;20046;50.746;7.072;2022-07-18T08:21:33;4.63;;;1.25;;
33716;SDS011;20046;50.746;7.072;2022-07-18T08:23:59;4.40;;;1.50;;
33716;SDS011;20046;50.746;7.072;2022-07-18T08:26:24;3.53;;;1.52;;
33716;SDS011;20046;50.746;7.072;2022-07-18T08:28:51;6.88;;;1.50;;
33716;SDS011;20046;50.746;7.072;2022-07-18T08:31:16;5.10;;;1.50;;
33716;SDS011;20046;50.746;7.072;2022-07-18T08:33:43;5.15;;;1.45;;
33716;SDS011;20046;50.746;7.072;2022-07-18T08:36:09;6.35;;;1.55;;
33716;SDS011;20046;50.746;7.072;2022-07-18T08:38:35;4.93;;;1.88;;
33716;SDS011;20046;50.746;7.072;2022-07-18T08:41:01;11.88;;;1.83;;
33716;SDS011;20046;50.746;7.072;2022-07-18T08:43:28;10.73;;;1.63;;
33716;SDS011;20046;50.746;7.072;2022-07-18T08:45:55;10.43;;;1.88;;
33716;SDS011;20046;50.746;7.072;2022-07-18T08:48:22;3.03;;;1.48;;
33716;SDS011;20046;50.746;7.072;2022-07-18T08:50:48;7.05;;;1.50;;
33716;SDS011;20046;50.746;7.072;2022-07-18T08:53:14;6.65;;;1.63;;
33716;SDS011;20046;50.746;7.072;2022-07-18T08:55:41;8.02;;;1.95;;
33716;SDS011;20046;50.746;7.072;2022-07-18T08:58:07;5.93;;;1.45;;
33716;SDS011;20046;50.746;7.072;2022-07-18T09:00:35;5.72;;;1.75;;
33716;SDS011;20046;50.746;7.072;2022-07-18T09:03:01;5.45;;;1.77;;
33716;SDS011;20046;50.746;7.072;2022-07-18T09:05:28;6.15;;;1.73;;
33716;SDS011;20046;50.746;7.072;2022-07-18T09:08:16;5.15;;;1.40;;
33716;SDS011;20046;50.746;7.072;2022-07-18T09:10:55;6.13;;;1.55;;
33716;SDS011;20046;50.746;7.072;2022-07-18T09:13:24;5.88;;;1.70;;
33716;SDS011;20046;50.746;7.072;2022-07-18T09:21:02;4.75;;;1.65;;
33716;SDS011;20046;50.746;7.072;2022-07-18T09:23:30;6.18;;;1.55;;
33716;SDS011;20046;50.746;7.072;2022-07-18T09:25:58;7.25;;;2.03;;
33716;SDS011;20046;50.746;7.072;2022-07-18T09:28:25;4.32;;;1.55;;
33716;SDS011;20046;50.746;7.072;2022-07-18T09:30:51;2.85;;;1.23;;
33716;SDS011;20046;50.746;7.072;2022-07-18T09:33:17;5.05;;;1.48;;
33716;SDS011;20046;50.746;7.072;2022-07-18T09:35:46;4.50;;;1.70;;
33716;SDS011;20046;50.746;7.072;2022-07-18T09:38:17;6.10;;;1.70;;
33716;SDS011;20046;50.746;7.072;2022-07-18T09:40:49;6.07;;;1.40;;
33716;SDS011;20046;50.746;7.072;2022-07-18T09:43:17;4.63;;;1.20;;
33716;SDS011;20046;50.746;7.072;2022-07-18T09:45:49;6.20;;;1.42;;
33716;SDS011;20046;50.746;7.072;2022-07-18T09:48:20;3.13;;;1.35;;
33716;SDS011;20046;50.746;7.072;2022-07-18T09:53:19;3.05;;;1.25;;
33716;SDS011;20046;50.746;7.072;2022-07-18T09:58:17;6.93;;;1.63;;
33716;SDS011;20046;50.746;7.072;2022-07-18T10:00:48;3.28;;;1.48;;
33716;SDS011;20046;50.746;7.072;2022-07-18T10:03:15;4.68;;;1.70;;
33716;SDS011;20046;50.746;7.072;2022-07-18T10:05:41;4.18;;;1.42;;
33716;SDS011;20046;50.746;7.072;2022-07-18T10:08:12;5.55;;;1.60;;
33716;SDS011;20046;50.746;7.072;2022-07-18T10:10:43;5.30;;;1.40;;
33716;SDS011;20046;50.746;7.072;2022-07-18T10:13:10;2.65;;;1.63;;
33716;SDS011;20046;50.746;7.072;2022-07-18T10:15:37;2.08;;;1.40;;
33716;SDS011;20046;50.746;7.072;2022-07-18T10:18:05;3.58;;;1.50;;
33716;SDS011;20046;50.746;7.072;2022-07-18T10:20:37;5.63;;;1.35;;
33716;SDS011;20046;50.746;7.072;2022-07-18T10:23:20;6.47;;;1.48;;
33716;SDS011;20046;50.746;7.072;2022-07-18T10:31:32;3.58;;;1.70;;
33716;SDS011;20046;50.746;7.072;2022-07-18T10:39:17;2.78;;;1.50;;
33716;SDS011;20046;50.746;7.072;2022-07-18T11:02:45;4.50;;;1.30;;
33716;SDS011;20046;50.746;7.072;2022-07-18T11:15:58;7.38;;;1.63;;
33716;SDS011;20046;50.746;7.072;2022-07-18T11:18:30;4.82;;;1.73;;
33716;SDS011;20046;50.746;7.072;2022-07-18T11:20:56;7.38;;;1.75;;
33716;SDS011;20046;50.746;7.072;2022-07-18T11:23:23;6.25;;;2.30;;
33716;SDS011;20046;50.746;7.072;2022-07-18T11:25:51;4.15;;;1.60;;
33716;SDS011;20046;50.746;7.072;2022-07-18T11:28:26;3.58;;;1.70;;
33716;SDS011;20046;50.746;7.072;2022-07-18T11:31:06;2.58;;;1.55;;
33716;SDS011;20046;50.746;7.072;2022-07-18T11:33:34;6.85;;;1.77;;
33716;SDS011;20046;50.746;7.072;2022-07-18T11:36:27;2.95;;;1.65;;
33716;SDS011;20046;50.746;7.072;2022-07-18T11:38:53;3.75;;;1.85;;
33716;SDS011;20046;50.746;7.072;2022-07-18T11:41:21;3.13;;;2.10;;
33716;SDS011;20046;50.746;7.072;2022-07-18T11:43:48;4.53;;;1.58;;
33716;SDS011;20046;50.746;7.072;2022-07-18T11:46:16;5.05;;;1.70;;
33716;SDS011;20046;50.746;7.072;2022-07-18T11:48:44;5.13;;;1.50;;
33716;SDS011;20046;50.746;7.072;2022-07-18T11:51:13;4.15;;;1.45;;
33716;SDS011;20046;50.746;7.072;2022-07-18T11:53:43;4.32;;;1.40;;
33716;SDS011;20046;50.746;7.072;2022-07-18T11:56:09;8.75;;;1.75;;
33716;SDS011;20046;50.746;7.072;2022-07-18T11:58:35;3.05;;;1.60;;
33716;SDS011;20046;50.746;7.072;2022-07-18T12:01:02;7.13;;;1.52;;
33716;SDS011;20046;50.746;7.072;2022-07-18T12:03:28;3.30;;;1.40;;
33716;SDS011;20046;50.746;7.072;2022-07-18T12:05:55;4.38;;;1.80;;
33716;SDS011;20046;50.746;7.072;2022-07-18T12:08:27;2.63;;;1.67;;
33716;SDS011;20046;50.746;7.072;2022-07-18T12:16:34;4.60;;;1.80;;
33716;SDS011;20046;50.746;7.072;2022-07-18T12:21:42;4.28;;;1.80;;
33716;SDS011;20046;50.746;7.072;2022-07-18T12:24:17;4.93;;;1.52;;
33716;SDS011;20046;50.746;7.072;2022-07-18T12:26:43;3.30;;;1.60;;
33716;SDS011;20046;50.746;7.072;2022-07-18T12:29:09;6.65;;;1.90;;
33716;SDS011;20046;50.746;7.072;2022-07-18T12:31:36;7.45;;;1.60;;
33716;SDS011;20046;50.746;7.072;2022-07-18T12:34:07;5.82;;;1.60;;
33716;SDS011;20046;50.746;7.072;2022-07-18T12:36:33;5.00;;;1.55;;
33716;SDS011;20046;50.746;7.072;2022-07-18T12:38:59;6.00;;;1.80;;
33716;SDS011;20046;50.746;7.072;2022-07-18T12:41:28;2.45;;;1.40;;
33716;SDS011;20046;50.746;7.072;2022-07-18T12:43:54;6.53;;;1.67;;
33716;SDS011;20046;50.746;7.072;2022-07-18T12:46:21;4.65;;;1.52;;
33716;SDS011;20046;50.746;7.072;2022-07-18T12:48:47;3.33;;;1.60;;
33716;SDS011;20046;50.746;7.072;2022-07-18T12:51:12;2.83;;;1.40;;
33716;SDS011;20046;50.746;7.072;2022-07-18T12:53:39;3.97;;;1.75;;
33716;SDS011;20046;50.746;7.072;2022-07-18T12:56:06;5.55;;;1.52;;
33716;SDS011;20046;50.746;7.072;2022-07-18T12:58:31;5.28;;;1.70;;
33716;SDS011;20046;50.746;7.072;2022-07-18T13:00:57;5.30;;;1.60;;
33716;SDS011;20046;50.746;7.072;2022-07-18T13:03:23;2.55;;;1.50;;
33716;SDS011;20046;50.746;7.072;2022-07-18T13:05:49;5.90;;;1.80;;
33716;SDS011;20046;50.746;7.072;2022-07-18T13:08:14;3.05;;;1.70;;
33716;SDS011;20046;50.746;7.072;2022-07-18T13:10:41;15.65;;;1.98;;
33716;SDS011;20046;50.746;7.072;2022-07-18T13:13:07;6.57;;;1.50;;
33716;SDS011;20046;50.746;7.072;2022-07-18T13:15:34;6.30;;;1.77;;
33716;SDS011;20046;50.746;7.072;2022-07-18T13:18:01;4.93;;;1.63;;
33716;SDS011;20046;50.746;7.072;2022-07-18T13:20:27;6.70;;;1.50;;
33716;SDS011;20046;50.746;7.072;2022-07-18T13:22:52;4.70;;;1.50;;
33716;SDS011;20046;50.746;7.072;2022-07-18T13:25:19;6.28;;;1.88;;
33716;SDS011;20046;50.746;7.072;2022-07-18T13:27:46;4.93;;;1.50;;
33716;SDS011;20046;50.746;7.072;2022-07-18T13:30:11;6.85;;;1.80;;
33716;SDS011;20046;50.746;7.072;2022-07-18T13:32:37;5.78;;;1.65;;
33716;SDS011;20046;50.746;7.072;2022-07-18T13:35:03;4.05;;;1.60;;
33716;SDS011;20046;50.746;7.072;2022-07-18T13:37:29;6.90;;;1.55;;
33716;SDS011;20046;50.746;7.072;2022-07-18T13:39:55;2.22;;;1.50;;
33716;SDS011;20046;50.746;7.072;2022-07-18T13:42:21;2.75;;;1.40;;
33716;SDS011;20046;50.746;7.072;2022-07-18T13:44:47;4.78;;;1.60;;
33716;SDS011;20046;50.746;7.072;2022-07-18T13:47:13;6.03;;;1.63;;
33716;SDS011;20046;50.746;7.072;2022-07-18T13:49:39;2.95;;;1.55;;
33716;SDS011;20046;50.746;7.072;2022-07-18T13:52:05;7.53;;;1.80;;
33716;SDS011;20046;50.746;7.072;2022-07-18T13:54:31;5.80;;;1.70;;
33716;SDS011;20046;50.746;7.072;2022-07-18T13:56:57;5.93;;;1.58;;
33716;SDS011;20046;50.746;7.072;2022-07-18T13:59:22;8.52;;;2.22;;
33716;SDS011;20046;50.746;7.072;2022-07-18T14:01:48;3.85;;;1.67;;
33716;SDS011;20046;50.746;7.072;2022-07-18T14:04:14;5.40;;;1.83;;
33716;SDS011;20046;50.746;7.072;2022-07-18T14:06:41;4.10;;;1.50;;
33716;SDS011;20046;50.746;7.072;2022-07-18T14:09:06;6.80;;;3.67;;
33716;SDS011;20046;50.746;7.072;2022-07-18T14:11:32;5.10;;;1.60;;
33716;SDS011;20046;50.746;7.072;2022-07-18T14:13:59;3.40;;;1.67;;
33716;SDS011;20046;50.746;7.072;2022-07-18T14:16:25;7.00;;;1.50;;
33716;SDS011;20046;50.746;7.072;2022-07-18T14:18:51;3.30;;;1.58;;
33716;SDS011;20046;50.746;7.072;2022-07-18T14:21:17;5.85;;;1.80;;
33716;SDS011;20046;50.746;7.072;2022-07-18T14:23:42;6.78;;;1.77;;
33716;SDS011;20046;50.746;7.072;2022-07-18T14:26:08;5.60;;;1.85;;
33716;SDS011;20046;50.746;7.072;2022-07-18T14:28:33;7.93;;;1.55;;
33716;SDS011;20046;50.746;7.072;2022-07-18T14:30:59;6.45;;;1.70;;
33716;SDS011;20046;50.746;7.072;2022-07-18T14:33:25;4.53;;;1.65;;
33716;SDS011;20046;50.746;7.072;2022-07-18T14:35:50;9.05;;;2.17;;
33716;SDS011;20046;50.746;7.072;2022-07-18T14:38:16;7.25;;;1.88;;
33716;SDS011;20046;50.746;7.072;2022-07-18T14:40:41;10.00;;;2.00;;
33716;SDS011;20046;50.746;7.072;2022-07-18T14:43:07;4.45;;;1.90;;
33716;SDS011;20046;50.746;7.072;2022-07-18T14:45:33;4.38;;;1.90;;
33716;SDS011;20046;50.746;7.072;2022-07-18T14:47:59;7.65;;;1.70;;
33716;SDS011;20046;50.746;7.072;2022-07-18T14:50:24;4.18;;;1.65;;
33716;SDS011;20046;50.746;7.072;2022-07-18T14:52:50;7.10;;;1.50;;
33716;SDS011;20046;50.746;7.072;2022-07-18T14:55:16;4.53;;;1.80;;
33716;SDS011;20046;50.746;7.072;2022-07-18T14:57:41;4.38;;;1.83;;
33716;SDS011;20046;50.746;7.072;2022-07-18T15:00:07;7.85;;;2.08;;
33716;SDS011;20046;50.746;7.072;2022-07-18T15:02:34;5.68;;;1.92;;
33716;SDS011;20046;50.746;7.072;2022-07-18T15:05:01;4.68;;;1.63;;
33716;SDS011;20046;50.746;7.072;2022-07-18T15:07:28;4.10;;;1.52;;
33716;SDS011;20046;50.746;7.072;2022-07-18T15:09:53;10.05;;;2.05;;
33716;SDS011;20046;50.746;7.072;2022-07-18T15:12:19;6.25;;;1.52;;
33716;SDS011;20046;50.746;7.072;2022-07-18T15:14:44;3.50;;;1.50;;
33716;SDS011;20046;50.746;7.072;2022-07-18T15:17:10;5.85;;;2.13;;
33716;SDS011;20046;50.746;7.072;2022-07-18T15:19:36;5.30;;;1.88;;
33716;SDS011;20046;50.746;7.072;2022-07-18T15:22:02;7.22;;;1.70;;
33716;SDS011;20046;50.746;7.072;2022-07-18T15:24:30;4.18;;;1.70;;
33716;SDS011;20046;50.746;7.072;2022-07-18T15:26:56;4.78;;;1.75;;
33716;SDS011;20046;50.746;7.072;2022-07-18T15:29:22;8.15;;;1.88;;
33716;SDS011;20046;50.746;7.072;2022-07-18T15:31:47;4.35;;;1.50;;
33716;SDS011;20046;50.746;7.072;2022-07-18T15:34:13;4.72;;;1.75;;
33716;SDS011;20046;50.746;7.072;2022-07-18T15:36:39;5.72;;;1.58;;
33716;SDS011;20046;50.746;7.072;2022-07-18T15:39:05;11.65;;;1.98;;
33716;SDS011;20046;50.746;7.072;2022-07-18T15:41:30;6.40;;;1.70;;
33716;SDS011;20046;50.746;7.072;2022-07-18T15:43:56;5.57;;;1.58;;